sensor_id;sensor_type;location;lat;lon;timestamp;P1;durP1;ratioP1;P2;durP2;ratioP2
2940;SDS011;1480;51.456;6.670;2023-08-17T00:01:22;5.23;;;2.87;;
2940;SDS011;1480;51.456;6.670;2023-08-17T00:03:48;9.60;;;3.13;;
2940;SDS011;1480;51.456;6.670;2023-08-17T00:06:15;5.43;;;3.70;;
2940;SDS011;1480;51.456;6.670;2023-08-17T00:08:42;3.97;;;3.50;;
2940;SDS011;1480;51.456;6.670;2023-08-17T00:11:09;4.17;;;3.00;;
2940;SDS011;1480;51.456;6.670;2023-08-17T00:13:35;3.67;;;3.00;;
2940;SDS011;1480;51.456;6.670;2023-08-17T00:16:02;5.10;;;2.80;;
2940;SDS011;1480;51.456;6.670;2023-08-17T00:18:31;3.43;;;2.83;;
2940;SDS011;1480;51.456;6.670;2023-08-17T00:20:57;5.80;;;3.43;;
2940;SDS011;1480;51.456;6.670;2023-08-17T00:23:24;3.80;;;2.87;;
2940;SDS011;1480;51.456;6.670;2023-08-17T00:25:51;3.67;;;2.83;;
2940;SDS011;1480;51.456;6.670;2023-08-17T00:28:17;5.90;;;2.93;;
2940;SDS011;1480;51.456;6.670;2023-08-17T00:30:44;4.97;;;2.77;;
2940;SDS011;1480;51.456;6.670;2023-08-17T00:33:11;5.00;;;3.07;;
2940;SDS011;1480;51.456;6.670;2023-08-17T00:35:40;5.10;;;2.97;;
2940;SDS011;1480;51.456;6.670;2023-08-17T00:38:07;4.77;;;2.90;;
2940;SDS011;1480;51.456;6.670;2023-08-17T00:40:34;7.23;;;3.17;;
2940;SDS011;1480;51.456;6.670;2023-08-17T00:43:01;5.17;;;2.80;;
2940;SDS011;1480;51.456;6.670;2023-08-17T00:45:28;4.70;;;3.07;;
2940;SDS011;1480;51.456;6.670;2023-08-17T00:47:56;7.83;;;2.67;;
2940;SDS011;1480;51.456;6.670;2023-08-17T00:50:24;3.20;;;2.60;;
2940;SDS011;1480;51.456;6.670;2023-08-17T00:52:52;8.33;;;2.97;;
2940;SDS011;1480;51.456;6.670;2023-08-17T00:55:20;4.83;;;2.40;;
2940;SDS011;1480;51.456;6.670;2023-08-17T00:57:47;4.83;;;3.33;;
2940;SDS011;1480;51.456;6.670;2023-08-17T01:00:14;2.93;;;2.63;;
2940;SDS011;1480;51.456;6.670;2023-08-17T01:02:41;4.83;;;2.63;;
2940;SDS011;1480;51.456;6.670;2023-08-17T01:05:08;5.57;;;2.70;;
2940;SDS011;1480;51.456;6.670;2023-08-17T01:07:35;3.27;;;2.97;;
2940;SDS011;1480;51.456;6.670;2023-08-17T01:10:04;9.50;;;3.30;;
2940;SDS011;1480;51.456;6.670;2023-08-17T01:12:38;13.60;;;2.63;;
2940;SDS011;1480;51.456;6.670;2023-08-17T01:15:09;4.00;;;2.90;;
2940;SDS011;1480;51.456;6.670;2023-08-17T01:17:42;2.70;;;2.20;;
2940;SDS011;1480;51.456;6.670;2023-08-17T01:20:13;3.00;;;2.57;;
2940;SDS011;1480;51.456;6.670;2023-08-17T01:22:44;3.60;;;2.67;;
2940;SDS011;1480;51.456;6.670;2023-08-17T01:25:13;3.20;;;2.00;;
2940;SDS011;1480;51.456;6.670;2023-08-17T01:27:42;2.90;;;2.30;;
2940;SDS011;1480;51.456;6.670;2023-08-17T01:30:11;3.60;;;2.90;;
2940;SDS011;1480;51.456;6.670;2023-08-17T01:32:40;7.73;;;2.47;;
2940;SDS011;1480;51.456;6.670;2023-08-17T01:35:12;2.10;;;1.90;;
2940;SDS011;1480;51.456;6.670;2023-08-17T01:37:43;7.30;;;2.80;;
2940;SDS011;1480;51.456;6.670;2023-08-17T01:40:10;4.10;;;3.10;;
2940;SDS011;1480;51.456;6.670;2023-08-17T01:42:43;10.43;;;2.50;;
2940;SDS011;1480;51.456;6.670;2023-08-17T01:45:16;4.30;;;2.80;;
2940;SDS011;1480;51.456;6.670;2023-08-17T01:47:43;6.83;;;3.33;;
2940;SDS011;1480;51.456;6.670;2023-08-17T01:50:10;4.10;;;2.77;;
2940;SDS011;1480;51.456;6.670;2023-08-17T01:52:36;3.03;;;2.40;;
2940;SDS011;1480;51.456;6.670;2023-08-17T01:55:03;5.37;;;2.47;;
2940;SDS011;1480;51.456;6.670;2023-08-17T01:57:32;8.37;;;3.40;;
2940;SDS011;1480;51.456;6.670;2023-08-17T01:59:59;3.40;;;2.50;;
2940;SDS011;1480;51.456;6.670;2023-08-17T02:02:26;6.73;;;1.90;;
2940;SDS011;1480;51.456;6.670;2023-08-17T02:04:53;5.30;;;2.90;;
2940;SDS011;1480;51.456;6.670;2023-08-17T02:07:19;6.20;;;2.50;;
2940;SDS011;1480;51.456;6.670;2023-08-17T02:09:48;3.63;;;2.40;;
2940;SDS011;1480;51.456;6.670;2023-08-17T02:12:14;5.20;;;3.07;;
2940;SDS011;1480;51.456;6.670;2023-08-17T02:14:43;3.63;;;2.43;;
2940;SDS011;1480;51.456;6.670;2023-08-17T02:17:09;8.23;;;2.77;;
2940;SDS011;1480;51.456;6.670;2023-08-17T02:19:37;4.83;;;2.63;;
2940;SDS011;1480;51.456;6.670;2023-08-17T02:22:04;2.30;;;1.80;;
2940;SDS011;1480;51.456;6.670;2023-08-17T02:24:31;4.23;;;1.97;;
2940;SDS011;1480;51.456;6.670;2023-08-17T02:26:58;5.10;;;2.70;;
2940;SDS011;1480;51.456;6.670;2023-08-17T02:29:24;3.47;;;2.87;;
2940;SDS011;1480;51.456;6.670;2023-08-17T02:31:52;5.37;;;2.77;;
2940;SDS011;1480;51.456;6.670;2023-08-17T02:34:19;6.10;;;1.93;;
2940;SDS011;1480;51.456;6.670;2023-08-17T02:36:46;6.40;;;3.13;;
2940;SDS011;1480;51.456;6.670;2023-08-17T02:39:12;7.30;;;2.50;;
2940;SDS011;1480;51.456;6.670;2023-08-17T02:41:39;3.00;;;2.57;;
2940;SDS011;1480;51.456;6.670;2023-08-17T02:44:08;5.40;;;2.40;;
2940;SDS011;1480;51.456;6.670;2023-08-17T02:46:34;3.53;;;2.70;;
2940;SDS011;1480;51.456;6.670;2023-08-17T02:49:02;3.50;;;2.30;;
2940;SDS011;1480;51.456;6.670;2023-08-17T02:51:29;2.60;;;2.10;;
2940;SDS011;1480;51.456;6.670;2023-08-17T02:53:56;12.60;;;3.13;;
2940;SDS011;1480;51.456;6.670;2023-08-17T02:56:25;11.60;;;2.57;;
2940;SDS011;1480;51.456;6.670;2023-08-17T02:58:52;4.20;;;2.60;;
2940;SDS011;1480;51.456;6.670;2023-08-17T03:01:18;5.33;;;3.13;;
2940;SDS011;1480;51.456;6.670;2023-08-17T03:03:48;3.77;;;2.53;;
2940;SDS011;1480;51.456;6.670;2023-08-17T03:06:16;4.03;;;2.10;;
2940;SDS011;1480;51.456;6.670;2023-08-17T03:08:42;10.27;;;2.67;;
2940;SDS011;1480;51.456;6.670;2023-08-17T03:11:10;9.70;;;3.03;;
2940;SDS011;1480;51.456;6.670;2023-08-17T03:13:37;11.60;;;2.80;;
2940;SDS011;1480;51.456;6.670;2023-08-17T03:16:04;3.90;;;2.20;;
2940;SDS011;1480;51.456;6.670;2023-08-17T03:18:30;6.60;;;2.57;;
2940;SDS011;1480;51.456;6.670;2023-08-17T03:20:58;5.60;;;2.93;;
2940;SDS011;1480;51.456;6.670;2023-08-17T03:23:26;4.60;;;2.50;;
2940;SDS011;1480;51.456;6.670;2023-08-17T03:25:53;4.03;;;2.30;;
2940;SDS011;1480;51.456;6.670;2023-08-17T03:28:20;6.63;;;2.77;;
2940;SDS011;1480;51.456;6.670;2023-08-17T03:30:47;4.30;;;2.77;;
2940;SDS011;1480;51.456;6.670;2023-08-17T03:33:14;5.60;;;2.60;;
2940;SDS011;1480;51.456;6.670;2023-08-17T03:35:40;4.73;;;2.97;;
2940;SDS011;1480;51.456;6.670;2023-08-17T03:38:07;6.57;;;3.10;;
2940;SDS011;1480;51.456;6.670;2023-08-17T03:40:35;3.03;;;2.63;;
2940;SDS011;1480;51.456;6.670;2023-08-17T03:43:02;2.90;;;2.60;;
2940;SDS011;1480;51.456;6.670;2023-08-17T03:45:29;6.60;;;2.53;;
2940;SDS011;1480;51.456;6.670;2023-08-17T03:47:56;4.20;;;2.60;;
2940;SDS011;1480;51.456;6.670;2023-08-17T03:50:25;4.80;;;2.17;;
2940;SDS011;1480;51.456;6.670;2023-08-17T03:52:52;2.87;;;2.10;;
2940;SDS011;1480;51.456;6.670;2023-08-17T03:55:20;3.10;;;2.50;;
2940;SDS011;1480;51.456;6.670;2023-08-17T03:57:48;4.17;;;2.37;;
2940;SDS011;1480;51.456;6.670;2023-08-17T04:00:15;8.13;;;2.80;;
2940;SDS011;1480;51.456;6.670;2023-08-17T04:02:42;3.00;;;2.17;;
2940;SDS011;1480;51.456;6.670;2023-08-17T04:05:13;4.33;;;2.83;;
2940;SDS011;1480;51.456;6.670;2023-08-17T04:07:41;10.10;;;3.03;;
2940;SDS011;1480;51.456;6.670;2023-08-17T04:10:08;5.47;;;2.17;;
2940;SDS011;1480;51.456;6.670;2023-08-17T04:12:35;5.00;;;2.37;;
2940;SDS011;1480;51.456;6.670;2023-08-17T04:15:03;3.57;;;2.53;;
2940;SDS011;1480;51.456;6.670;2023-08-17T04:17:31;3.47;;;2.40;;
2940;SDS011;1480;51.456;6.670;2023-08-17T04:19:58;6.10;;;2.73;;
2940;SDS011;1480;51.456;6.670;2023-08-17T04:22:24;3.70;;;2.77;;
2940;SDS011;1480;51.456;6.670;2023-08-17T04:24:51;3.70;;;2.67;;
2940;SDS011;1480;51.456;6.670;2023-08-17T04:27:18;3.10;;;2.40;;
2940;SDS011;1480;51.456;6.670;2023-08-17T04:29:45;4.30;;;2.60;;
2940;SDS011;1480;51.456;6.670;2023-08-17T04:32:15;6.10;;;3.23;;
2940;SDS011;1480;51.456;6.670;2023-08-17T04:34:42;3.70;;;2.57;;
2940;SDS011;1480;51.456;6.670;2023-08-17T04:37:09;11.20;;;3.00;;
2940;SDS011;1480;51.456;6.670;2023-08-17T04:39:36;8.27;;;3.10;;
2940;SDS011;1480;51.456;6.670;2023-08-17T04:42:03;3.80;;;2.33;;
2940;SDS011;1480;51.456;6.670;2023-08-17T04:44:32;5.40;;;3.00;;
2940;SDS011;1480;51.456;6.670;2023-08-17T04:47:00;2.70;;;1.73;;
2940;SDS011;1480;51.456;6.670;2023-08-17T04:49:28;4.27;;;2.80;;
2940;SDS011;1480;51.456;6.670;2023-08-17T04:51:55;4.57;;;2.40;;
2940;SDS011;1480;51.456;6.670;2023-08-17T04:54:22;4.43;;;3.03;;
2940;SDS011;1480;51.456;6.670;2023-08-17T04:56:48;4.17;;;2.80;;
2940;SDS011;1480;51.456;6.670;2023-08-17T04:59:15;4.63;;;2.80;;
2940;SDS011;1480;51.456;6.670;2023-08-17T05:01:42;2.90;;;2.53;;
2940;SDS011;1480;51.456;6.670;2023-08-17T05:04:08;5.93;;;3.47;;
2940;SDS011;1480;51.456;6.670;2023-08-17T05:06:37;6.73;;;2.90;;
2940;SDS011;1480;51.456;6.670;2023-08-17T05:09:04;3.67;;;2.17;;
2940;SDS011;1480;51.456;6.670;2023-08-17T05:11:33;3.70;;;2.50;;
2940;SDS011;1480;51.456;6.670;2023-08-17T05:13:59;3.23;;;2.60;;
2940;SDS011;1480;51.456;6.670;2023-08-17T05:16:28;4.10;;;2.40;;
2940;SDS011;1480;51.456;6.670;2023-08-17T05:18:56;3.83;;;3.20;;
2940;SDS011;1480;51.456;6.670;2023-08-17T05:21:25;3.00;;;2.63;;
2940;SDS011;1480;51.456;6.670;2023-08-17T05:23:53;2.93;;;2.00;;
2940;SDS011;1480;51.456;6.670;2023-08-17T05:26:19;2.77;;;2.20;;
2940;SDS011;1480;51.456;6.670;2023-08-17T05:28:46;2.90;;;2.23;;
2940;SDS011;1480;51.456;6.670;2023-08-17T05:31:13;3.33;;;2.77;;
2940;SDS011;1480;51.456;6.670;2023-08-17T05:33:43;4.40;;;2.77;;
2940;SDS011;1480;51.456;6.670;2023-08-17T05:36:10;6.60;;;3.33;;
2940;SDS011;1480;51.456;6.670;2023-08-17T05:38:38;5.90;;;2.77;;
2940;SDS011;1480;51.456;6.670;2023-08-17T05:41:06;8.83;;;2.70;;
2940;SDS011;1480;51.456;6.670;2023-08-17T05:43:33;3.43;;;2.63;;
2940;SDS011;1480;51.456;6.670;2023-08-17T05:45:59;7.00;;;2.73;;
2940;SDS011;1480;51.456;6.670;2023-08-17T05:48:26;3.00;;;2.50;;
2940;SDS011;1480;51.456;6.670;2023-08-17T05:50:53;3.17;;;2.17;;
2940;SDS011;1480;51.456;6.670;2023-08-17T05:53:21;4.03;;;3.07;;
2940;SDS011;1480;51.456;6.670;2023-08-17T05:55:48;7.80;;;3.20;;
2940;SDS011;1480;51.456;6.670;2023-08-17T05:58:16;5.97;;;2.57;;
2940;SDS011;1480;51.456;6.670;2023-08-17T06:00:43;5.10;;;3.27;;
2940;SDS011;1480;51.456;6.670;2023-08-17T06:03:09;5.43;;;3.23;;
2940;SDS011;1480;51.456;6.670;2023-08-17T06:05:36;4.30;;;3.00;;
2940;SDS011;1480;51.456;6.670;2023-08-17T06:08:03;5.00;;;3.30;;
2940;SDS011;1480;51.456;6.670;2023-08-17T06:10:31;2.70;;;2.13;;
2940;SDS011;1480;51.456;6.670;2023-08-17T06:12:57;8.80;;;2.60;;
2940;SDS011;1480;51.456;6.670;2023-08-17T06:15:25;7.53;;;3.40;;
2940;SDS011;1480;51.456;6.670;2023-08-17T06:17:52;7.93;;;3.40;;
2940;SDS011;1480;51.456;6.670;2023-08-17T06:20:19;7.40;;;3.33;;
2940;SDS011;1480;51.456;6.670;2023-08-17T06:22:47;10.43;;;2.97;;
2940;SDS011;1480;51.456;6.670;2023-08-17T06:25:14;5.57;;;3.37;;
2940;SDS011;1480;51.456;6.670;2023-08-17T06:27:41;5.93;;;2.50;;
2940;SDS011;1480;51.456;6.670;2023-08-17T06:30:08;4.13;;;3.70;;
2940;SDS011;1480;51.456;6.670;2023-08-17T06:32:37;6.20;;;3.40;;
2940;SDS011;1480;51.456;6.670;2023-08-17T06:35:04;5.93;;;3.80;;
2940;SDS011;1480;51.456;6.670;2023-08-17T06:37:31;8.57;;;3.47;;
2940;SDS011;1480;51.456;6.670;2023-08-17T06:39:58;4.57;;;3.30;;
2940;SDS011;1480;51.456;6.670;2023-08-17T06:42:25;6.73;;;3.63;;
2940;SDS011;1480;51.456;6.670;2023-08-17T06:44:51;7.80;;;4.10;;
2940;SDS011;1480;51.456;6.670;2023-08-17T06:47:18;7.40;;;3.10;;
2940;SDS011;1480;51.456;6.670;2023-08-17T06:49:46;4.97;;;3.97;;
2940;SDS011;1480;51.456;6.670;2023-08-17T06:52:13;6.97;;;3.50;;
2940;SDS011;1480;51.456;6.670;2023-08-17T06:54:40;9.20;;;4.07;;
2940;SDS011;1480;51.456;6.670;2023-08-17T06:57:06;5.07;;;4.20;;
2940;SDS011;1480;51.456;6.670;2023-08-17T06:59:33;8.90;;;4.77;;
2940;SDS011;1480;51.456;6.670;2023-08-17T07:02:00;4.80;;;3.87;;
2940;SDS011;1480;51.456;6.670;2023-08-17T07:04:27;14.77;;;6.23;;
2940;SDS011;1480;51.456;6.670;2023-08-17T07:06:55;11.60;;;8.07;;
2940;SDS011;1480;51.456;6.670;2023-08-17T07:09:22;15.47;;;10.57;;
2940;SDS011;1480;51.456;6.670;2023-08-17T07:11:48;13.13;;;8.23;;
2940;SDS011;1480;51.456;6.670;2023-08-17T07:14:15;11.57;;;7.33;;
2940;SDS011;1480;51.456;6.670;2023-08-17T07:16:42;17.23;;;9.93;;
2940;SDS011;1480;51.456;6.670;2023-08-17T07:19:09;18.60;;;10.57;;
2940;SDS011;1480;51.456;6.670;2023-08-17T07:21:36;14.03;;;9.50;;
2940;SDS011;1480;51.456;6.670;2023-08-17T07:24:12;16.83;;;8.80;;
2940;SDS011;1480;51.456;6.670;2023-08-17T07:26:40;17.10;;;8.57;;
2940;SDS011;1480;51.456;6.670;2023-08-17T07:29:07;14.80;;;10.03;;
2940;SDS011;1480;51.456;6.670;2023-08-17T07:31:33;11.83;;;8.53;;
2940;SDS011;1480;51.456;6.670;2023-08-17T07:34:02;13.23;;;8.70;;
2940;SDS011;1480;51.456;6.670;2023-08-17T07:36:30;13.80;;;9.77;;
2940;SDS011;1480;51.456;6.670;2023-08-17T07:38:56;12.80;;;8.83;;
2940;SDS011;1480;51.456;6.670;2023-08-17T07:41:25;14.17;;;8.13;;
2940;SDS011;1480;51.456;6.670;2023-08-17T07:43:51;14.40;;;8.20;;
2940;SDS011;1480;51.456;6.670;2023-08-17T07:46:18;14.93;;;9.10;;
2940;SDS011;1480;51.456;6.670;2023-08-17T07:48:44;19.60;;;12.17;;
2940;SDS011;1480;51.456;6.670;2023-08-17T07:51:11;12.63;;;9.67;;
2940;SDS011;1480;51.456;6.670;2023-08-17T07:53:38;18.90;;;10.67;;
2940;SDS011;1480;51.456;6.670;2023-08-17T07:56:05;11.87;;;9.57;;
2940;SDS011;1480;51.456;6.670;2023-08-17T07:58:33;15.97;;;12.40;;
2940;SDS011;1480;51.456;6.670;2023-08-17T08:01:00;12.93;;;9.27;;
2940;SDS011;1480;51.456;6.670;2023-08-17T08:03:26;17.23;;;10.23;;
2940;SDS011;1480;51.456;6.670;2023-08-17T08:05:53;20.33;;;12.67;;
2940;SDS011;1480;51.456;6.670;2023-08-17T08:08:20;14.07;;;9.37;;
2940;SDS011;1480;51.456;6.670;2023-08-17T08:10:46;16.30;;;10.77;;
2940;SDS011;1480;51.456;6.670;2023-08-17T08:13:13;14.47;;;10.37;;
2940;SDS011;1480;51.456;6.670;2023-08-17T08:15:41;13.00;;;9.60;;
2940;SDS011;1480;51.456;6.670;2023-08-17T08:18:16;23.27;;;12.80;;
2940;SDS011;1480;51.456;6.670;2023-08-17T08:20:42;21.10;;;11.97;;
2940;SDS011;1480;51.456;6.670;2023-08-17T08:23:09;13.67;;;9.40;;
2940;SDS011;1480;51.456;6.670;2023-08-17T08:25:36;15.00;;;11.17;;
2940;SDS011;1480;51.456;6.670;2023-08-17T08:28:03;14.00;;;10.27;;
2940;SDS011;1480;51.456;6.670;2023-08-17T08:30:30;15.87;;;10.77;;
2940;SDS011;1480;51.456;6.670;2023-08-17T08:32:58;14.63;;;10.37;;
2940;SDS011;1480;51.456;6.670;2023-08-17T08:35:25;18.47;;;10.30;;
2940;SDS011;1480;51.456;6.670;2023-08-17T08:37:51;17.63;;;10.97;;
2940;SDS011;1480;51.456;6.670;2023-08-17T08:40:20;17.70;;;12.17;;
2940;SDS011;1480;51.456;6.670;2023-08-17T08:42:53;16.53;;;9.90;;
2940;SDS011;1480;51.456;6.670;2023-08-17T08:45:20;15.73;;;9.97;;
2940;SDS011;1480;51.456;6.670;2023-08-17T08:47:48;14.40;;;11.57;;
2940;SDS011;1480;51.456;6.670;2023-08-17T08:50:17;21.27;;;12.83;;
2940;SDS011;1480;51.456;6.670;2023-08-17T08:52:48;18.50;;;11.40;;
2940;SDS011;1480;51.456;6.670;2023-08-17T08:55:18;10.83;;;6.80;;
2940;SDS011;1480;51.456;6.670;2023-08-17T08:57:45;9.80;;;7.57;;
2940;SDS011;1480;51.456;6.670;2023-08-17T09:00:12;13.50;;;7.23;;
2940;SDS011;1480;51.456;6.670;2023-08-17T09:02:40;10.00;;;6.93;;
2940;SDS011;1480;51.456;6.670;2023-08-17T09:05:09;9.63;;;6.80;;
2940;SDS011;1480;51.456;6.670;2023-08-17T09:07:38;11.33;;;8.50;;
2940;SDS011;1480;51.456;6.670;2023-08-17T09:10:05;19.67;;;9.17;;
2940;SDS011;1480;51.456;6.670;2023-08-17T09:12:33;11.00;;;7.30;;
2940;SDS011;1480;51.456;6.670;2023-08-17T09:14:59;12.20;;;7.47;;
2940;SDS011;1480;51.456;6.670;2023-08-17T09:17:26;10.70;;;8.57;;
2940;SDS011;1480;51.456;6.670;2023-08-17T09:19:53;11.17;;;8.83;;
2940;SDS011;1480;51.456;6.670;2023-08-17T09:22:23;13.23;;;7.10;;
2940;SDS011;1480;51.456;6.670;2023-08-17T09:24:52;11.63;;;7.73;;
2940;SDS011;1480;51.456;6.670;2023-08-17T09:27:20;15.50;;;10.87;;
2940;SDS011;1480;51.456;6.670;2023-08-17T09:29:46;23.20;;;11.13;;
2940;SDS011;1480;51.456;6.670;2023-08-17T09:32:14;25.20;;;11.57;;
2940;SDS011;1480;51.456;6.670;2023-08-17T09:34:41;20.67;;;11.43;;
2940;SDS011;1480;51.456;6.670;2023-08-17T09:37:08;13.23;;;10.10;;
2940;SDS011;1480;51.456;6.670;2023-08-17T09:39:35;12.73;;;8.93;;
2940;SDS011;1480;51.456;6.670;2023-08-17T09:42:04;16.03;;;9.80;;
2940;SDS011;1480;51.456;6.670;2023-08-17T09:44:33;15.90;;;8.63;;
2940;SDS011;1480;51.456;6.670;2023-08-17T09:47:00;12.93;;;8.50;;
2940;SDS011;1480;51.456;6.670;2023-08-17T09:49:29;14.13;;;8.37;;
2940;SDS011;1480;51.456;6.670;2023-08-17T09:51:58;15.50;;;9.13;;
2940;SDS011;1480;51.456;6.670;2023-08-17T09:54:25;17.17;;;10.00;;
2940;SDS011;1480;51.456;6.670;2023-08-17T09:56:52;15.23;;;9.83;;
2940;SDS011;1480;51.456;6.670;2023-08-17T09:59:21;15.60;;;10.17;;
2940;SDS011;1480;51.456;6.670;2023-08-17T10:01:49;14.57;;;9.80;;
2940;SDS011;1480;51.456;6.670;2023-08-17T10:04:19;13.50;;;10.50;;
2940;SDS011;1480;51.456;6.670;2023-08-17T10:06:47;12.70;;;8.87;;
2940;SDS011;1480;51.456;6.670;2023-08-17T10:09:14;11.20;;;8.80;;
2940;SDS011;1480;51.456;6.670;2023-08-17T10:11:44;14.23;;;11.40;;
2940;SDS011;1480;51.456;6.670;2023-08-17T10:14:13;14.07;;;8.37;;
2940;SDS011;1480;51.456;6.670;2023-08-17T10:16:44;13.57;;;10.77;;
2940;SDS011;1480;51.456;6.670;2023-08-17T10:19:13;15.83;;;11.67;;
2940;SDS011;1480;51.456;6.670;2023-08-17T10:21:46;15.57;;;9.37;;
2940;SDS011;1480;51.456;6.670;2023-08-17T10:24:16;13.70;;;9.67;;
2940;SDS011;1480;51.456;6.670;2023-08-17T10:26:44;13.80;;;11.17;;
2940;SDS011;1480;51.456;6.670;2023-08-17T10:29:11;18.53;;;9.80;;
2940;SDS011;1480;51.456;6.670;2023-08-17T10:31:38;12.63;;;9.20;;
2940;SDS011;1480;51.456;6.670;2023-08-17T10:34:06;17.00;;;11.20;;
2940;SDS011;1480;51.456;6.670;2023-08-17T10:36:33;19.73;;;10.23;;
2940;SDS011;1480;51.456;6.670;2023-08-17T10:39:19;21.10;;;10.27;;
2940;SDS011;1480;51.456;6.670;2023-08-17T10:41:47;14.17;;;9.37;;
2940;SDS011;1480;51.456;6.670;2023-08-17T10:44:15;11.87;;;9.50;;
2940;SDS011;1480;51.456;6.670;2023-08-17T10:46:43;21.13;;;12.00;;
2940;SDS011;1480;51.456;6.670;2023-08-17T10:49:25;17.00;;;12.13;;
2940;SDS011;1480;51.456;6.670;2023-08-17T10:52:04;16.63;;;10.03;;
2940;SDS011;1480;51.456;6.670;2023-08-17T10:54:38;16.37;;;9.60;;
2940;SDS011;1480;51.456;6.670;2023-08-17T11:00:08;10.90;;;8.40;;
2940;SDS011;1480;51.456;6.670;2023-08-17T11:02:53;14.07;;;9.00;;
2940;SDS011;1480;51.456;6.670;2023-08-17T11:05:39;12.73;;;8.90;;
2940;SDS011;1480;51.456;6.670;2023-08-17T11:08:08;13.33;;;10.67;;
2940;SDS011;1480;51.456;6.670;2023-08-17T11:10:35;14.90;;;9.53;;
2940;SDS011;1480;51.456;6.670;2023-08-17T11:13:03;12.97;;;9.10;;
2940;SDS011;1480;51.456;6.670;2023-08-17T11:15:37;12.40;;;9.83;;
2940;SDS011;1480;51.456;6.670;2023-08-17T11:18:05;13.10;;;9.10;;
2940;SDS011;1480;51.456;6.670;2023-08-17T11:20:33;15.43;;;9.13;;
2940;SDS011;1480;51.456;6.670;2023-08-17T11:23:01;14.50;;;9.57;;
2940;SDS011;1480;51.456;6.670;2023-08-17T11:25:28;8.93;;;7.40;;
2940;SDS011;1480;51.456;6.670;2023-08-17T11:27:55;19.50;;;11.63;;
2940;SDS011;1480;51.456;6.670;2023-08-17T11:30:21;21.20;;;11.67;;
2940;SDS011;1480;51.456;6.670;2023-08-17T11:32:49;13.47;;;10.43;;
2940;SDS011;1480;51.456;6.670;2023-08-17T11:35:19;10.73;;;8.50;;
2940;SDS011;1480;51.456;6.670;2023-08-17T11:37:46;11.70;;;7.47;;
2940;SDS011;1480;51.456;6.670;2023-08-17T11:40:15;11.60;;;8.40;;
2940;SDS011;1480;51.456;6.670;2023-08-17T11:42:42;16.40;;;10.27;;
2940;SDS011;1480;51.456;6.670;2023-08-17T11:45:09;19.27;;;8.90;;
2940;SDS011;1480;51.456;6.670;2023-08-17T11:47:37;21.33;;;9.70;;
2940;SDS011;1480;51.456;6.670;2023-08-17T11:50:08;11.53;;;8.57;;
2940;SDS011;1480;51.456;6.670;2023-08-17T11:52:36;17.10;;;10.90;;
2940;SDS011;1480;51.456;6.670;2023-08-17T11:55:03;14.60;;;9.10;;
2940;SDS011;1480;51.456;6.670;2023-08-17T11:57:33;12.20;;;8.80;;
2940;SDS011;1480;51.456;6.670;2023-08-17T12:00:00;11.90;;;7.53;;
2940;SDS011;1480;51.456;6.670;2023-08-17T12:02:30;7.30;;;6.10;;
2940;SDS011;1480;51.456;6.670;2023-08-17T12:04:57;10.73;;;7.30;;
2940;SDS011;1480;51.456;6.670;2023-08-17T12:07:24;9.60;;;6.50;;
2940;SDS011;1480;51.456;6.670;2023-08-17T12:09:50;10.03;;;6.67;;
2940;SDS011;1480;51.456;6.670;2023-08-17T12:12:17;12.30;;;8.50;;
2940;SDS011;1480;51.456;6.670;2023-08-17T12:14:45;12.20;;;8.30;;
2940;SDS011;1480;51.456;6.670;2023-08-17T12:17:16;9.73;;;8.07;;
2940;SDS011;1480;51.456;6.670;2023-08-17T12:19:43;12.33;;;7.93;;
2940;SDS011;1480;51.456;6.670;2023-08-17T12:22:12;14.67;;;9.33;;
2940;SDS011;1480;51.456;6.670;2023-08-17T12:24:39;14.67;;;9.83;;
2940;SDS011;1480;51.456;6.670;2023-08-17T12:27:06;13.67;;;10.83;;
2940;SDS011;1480;51.456;6.670;2023-08-17T12:29:32;13.80;;;9.97;;
2940;SDS011;1480;51.456;6.670;2023-08-17T12:32:01;14.40;;;10.20;;
2940;SDS011;1480;51.456;6.670;2023-08-17T12:34:28;12.37;;;9.00;;
2940;SDS011;1480;51.456;6.670;2023-08-17T12:36:55;14.97;;;9.20;;
2940;SDS011;1480;51.456;6.670;2023-08-17T12:39:23;14.90;;;10.43;;
2940;SDS011;1480;51.456;6.670;2023-08-17T12:41:50;14.23;;;9.17;;
2940;SDS011;1480;51.456;6.670;2023-08-17T12:44:17;10.70;;;8.80;;
2940;SDS011;1480;51.456;6.670;2023-08-17T12:46:43;14.60;;;9.23;;
2940;SDS011;1480;51.456;6.670;2023-08-17T12:49:12;15.93;;;10.67;;
2940;SDS011;1480;51.456;6.670;2023-08-17T12:51:38;17.03;;;10.50;;
2940;SDS011;1480;51.456;6.670;2023-08-17T12:54:05;16.43;;;11.00;;
2940;SDS011;1480;51.456;6.670;2023-08-17T12:56:32;14.77;;;10.10;;
2940;SDS011;1480;51.456;6.670;2023-08-17T12:58:58;17.67;;;11.27;;
2940;SDS011;1480;51.456;6.670;2023-08-17T13:01:25;22.10;;;13.20;;
2940;SDS011;1480;51.456;6.670;2023-08-17T13:03:52;18.23;;;13.23;;
2940;SDS011;1480;51.456;6.670;2023-08-17T13:06:20;16.87;;;10.97;;
2940;SDS011;1480;51.456;6.670;2023-08-17T13:08:47;14.63;;;9.73;;
2940;SDS011;1480;51.456;6.670;2023-08-17T13:11:14;16.33;;;10.10;;
2940;SDS011;1480;51.456;6.670;2023-08-17T13:13:40;20.73;;;10.60;;
2940;SDS011;1480;51.456;6.670;2023-08-17T13:16:07;16.27;;;12.30;;
2940;SDS011;1480;51.456;6.670;2023-08-17T13:18:34;16.13;;;11.40;;
2940;SDS011;1480;51.456;6.670;2023-08-17T13:21:00;15.43;;;11.47;;
2940;SDS011;1480;51.456;6.670;2023-08-17T13:23:29;11.53;;;9.53;;
2940;SDS011;1480;51.456;6.670;2023-08-17T13:25:55;14.93;;;10.60;;
2940;SDS011;1480;51.456;6.670;2023-08-17T13:28:22;15.60;;;8.90;;
2940;SDS011;1480;51.456;6.670;2023-08-17T13:30:49;12.70;;;9.83;;
2940;SDS011;1480;51.456;6.670;2023-08-17T13:33:15;13.53;;;9.77;;
2940;SDS011;1480;51.456;6.670;2023-08-17T13:35:43;14.03;;;8.60;;
2940;SDS011;1480;51.456;6.670;2023-08-17T13:38:09;18.83;;;9.40;;
2940;SDS011;1480;51.456;6.670;2023-08-17T13:40:39;13.37;;;10.40;;
2940;SDS011;1480;51.456;6.670;2023-08-17T13:43:06;14.37;;;10.00;;
2940;SDS011;1480;51.456;6.670;2023-08-17T13:45:37;13.80;;;8.27;;
2940;SDS011;1480;51.456;6.670;2023-08-17T13:48:05;15.13;;;9.80;;
2940;SDS011;1480;51.456;6.670;2023-08-17T13:50:32;15.30;;;9.97;;
2940;SDS011;1480;51.456;6.670;2023-08-17T13:52:59;18.87;;;10.70;;
2940;SDS011;1480;51.456;6.670;2023-08-17T13:55:26;14.97;;;8.77;;
2940;SDS011;1480;51.456;6.670;2023-08-17T13:57:54;14.43;;;9.70;;
2940;SDS011;1480;51.456;6.670;2023-08-17T14:00:21;13.33;;;8.17;;
2940;SDS011;1480;51.456;6.670;2023-08-17T14:02:48;16.73;;;11.03;;
2940;SDS011;1480;51.456;6.670;2023-08-17T14:05:15;12.80;;;9.37;;
2940;SDS011;1480;51.456;6.670;2023-08-17T14:07:42;13.33;;;8.70;;
2940;SDS011;1480;51.456;6.670;2023-08-17T14:10:08;12.40;;;9.07;;
2940;SDS011;1480;51.456;6.670;2023-08-17T14:12:36;14.17;;;8.93;;
2940;SDS011;1480;51.456;6.670;2023-08-17T14:15:04;15.80;;;10.77;;
2940;SDS011;1480;51.456;6.670;2023-08-17T14:17:32;17.30;;;10.93;;
2940;SDS011;1480;51.456;6.670;2023-08-17T14:19:58;17.63;;;8.80;;
2940;SDS011;1480;51.456;6.670;2023-08-17T14:22:25;15.23;;;9.20;;
2940;SDS011;1480;51.456;6.670;2023-08-17T14:24:52;16.20;;;9.93;;
2940;SDS011;1480;51.456;6.670;2023-08-17T14:27:18;13.60;;;9.23;;
2940;SDS011;1480;51.456;6.670;2023-08-17T14:29:45;15.13;;;10.37;;
2940;SDS011;1480;51.456;6.670;2023-08-17T14:32:13;18.60;;;8.60;;
2940;SDS011;1480;51.456;6.670;2023-08-17T14:34:40;16.43;;;9.00;;
2940;SDS011;1480;51.456;6.670;2023-08-17T14:37:07;15.57;;;8.83;;
2940;SDS011;1480;51.456;6.670;2023-08-17T14:39:33;13.10;;;9.83;;
2940;SDS011;1480;51.456;6.670;2023-08-17T14:42:00;12.73;;;9.70;;
2940;SDS011;1480;51.456;6.670;2023-08-17T14:44:27;12.50;;;8.00;;
2940;SDS011;1480;51.456;6.670;2023-08-17T14:46:53;14.57;;;8.97;;
2940;SDS011;1480;51.456;6.670;2023-08-17T14:49:22;16.93;;;11.17;;
2940;SDS011;1480;51.456;6.670;2023-08-17T14:51:48;13.10;;;9.63;;
2940;SDS011;1480;51.456;6.670;2023-08-17T14:54:15;19.13;;;10.83;;
2940;SDS011;1480;51.456;6.670;2023-08-17T14:56:41;11.67;;;9.07;;
2940;SDS011;1480;51.456;6.670;2023-08-17T14:59:08;16.70;;;9.50;;
2940;SDS011;1480;51.456;6.670;2023-08-17T15:01:35;10.73;;;8.77;;
2940;SDS011;1480;51.456;6.670;2023-08-17T15:04:02;14.97;;;8.20;;
2940;SDS011;1480;51.456;6.670;2023-08-17T15:06:30;11.63;;;8.30;;
2940;SDS011;1480;51.456;6.670;2023-08-17T15:08:56;10.83;;;7.97;;
2940;SDS011;1480;51.456;6.670;2023-08-17T15:11:23;16.30;;;8.73;;